Airfield :
LOGIN :

Register | Disclaimer

   EN    FR    IT 

 










Legend :    VFR   Marginal VFR   IFR   Intensive IFR   Very Intensive IFR
Visi :
Ceiling :
>= 8 km
>= 3000ft
5 to 8 km
1000 to 3000 ft
1500m to 5 km
500 to 1000 ft
800 to 1500m
200 to 500 ft
< 800m
< 200 ft
Symbols :   Thunderstorms  Fog  Heavy snow  Heavy precipitations  Wind > 20 kt
SIGMETs :     Misc.  Thunderstorms  Icing  Turbulence  Mountain Waves  Volcanic Ashes






- Airport Elevation : 1161 ft
- IATA code : RJL


LELO - Logroño-Agoncillo

CURRENT METAR :
  • 261400Z 05008KT 010V090 9000 SCT015 SCT025 12/09 Q1014

EXPIRED METARs :
  • 261330Z 08012KT 050V110 9000 SCT015 SCT022 12/09 Q1014
  • 261300Z 07010KT 040V100 9000 FEW013 SCT024 12/09 Q1015
  • 261230Z 07009KT 020V110 9000 SCT013 SCT024 12/09 Q1015
  • 261200Z 07008KT 030V110 9000 BKN012 BKN022 11/09 Q1015
  • 261130Z 07007KT 030V110 9000 BKN013 11/08 Q1015

TAF TAF LELO
Valid from the 26 at 09:00 until the 27 at 09:00 UTC


260800Z 2609/2709 10010KT 9999 BKN020 TX12/2615Z TN07/2706Z
TEMPO 2612/2706 OVC006
BECMG 2706/2708 RA



MET'MAP, your aeronautical weather chart ! - Copyright ORBIFLY December 2007 - Disclaimer

ORBIFLY MET'MAP TEAM :

Programming & Development : Alexandra Zaïnal
Concept & original design : Baudouin d'Aumeries
Assistance for programming : Marc-Olivier Méhu
Technical & hardware support : Manuel Goepfert

Contact : metmap@orbifly.com




SOURCES & CREDITS :

   NOAA